createdAt,value
2017-10-11T00:00:54.455Z,32
2017-10-11T00:13:43.187Z,31
2017-10-11T00:38:22.596Z,33
2017-10-11T00:50:23.669Z,32
2017-10-11T01:14:16.122Z,32
2017-10-11T01:26:14.246Z,33
2017-10-11T01:38:13.818Z,31
2017-10-11T01:50:12.725Z,31
2017-10-11T02:02:18.967Z,30
2017-10-11T02:26:23.008Z,30
2017-10-11T02:38:22.832Z,29
2017-10-11T02:50:25.346Z,32
2017-10-11T03:02:30.648Z,32
2017-10-11T03:14:43.545Z,31
2017-10-11T03:26:57.434Z,32
2017-10-11T03:39:01.346Z,31
2017-10-11T04:03:26.412Z,32
2017-10-11T04:15:41.311Z,30
2017-10-11T04:28:01.966Z,30
2017-10-11T04:51:49.736Z,30
2017-10-11T05:05:26.191Z,30
2017-10-11T05:17:25.495Z,29
2017-10-11T05:29:38.099Z,30
2017-10-11T05:42:11.163Z,29
2017-10-11T06:18:46.015Z,31
2017-10-11T06:54:52.415Z,30
2017-10-11T07:07:01.055Z,30
2017-10-11T07:43:31.081Z,29
2017-10-11T08:32:32.024Z,30
2017-10-11T08:44:33.909Z,28
2017-10-11T08:56:35.674Z,30
2017-10-11T09:08:36.270Z,29
2017-10-11T09:20:36.632Z,28
2017-10-11T09:32:39.768Z,29
2017-10-11T09:44:43.107Z,29
2017-10-11T09:56:43.091Z,28
2017-10-11T10:08:41.873Z,29
2017-10-11T10:20:49.390Z,29
2017-10-11T10:32:51.688Z,30
2017-10-11T10:44:55.106Z,28
2017-10-11T10:56:56.730Z,29
2017-10-11T11:08:57.944Z,28
2017-10-11T11:45:50.370Z,29
2017-10-11T11:58:10.978Z,29
2017-10-11T12:10:30.841Z,28
2017-10-11T12:35:12.541Z,29
2017-10-11T12:59:53.948Z,26
2017-10-11T13:36:16.168Z,25
2017-10-11T13:48:19.406Z,28
2017-10-11T14:00:19.648Z,28
2017-10-11T14:12:22.612Z,28
2017-10-11T14:36:41.684Z,28
2017-10-11T14:48:50.807Z,27
2017-10-11T15:00:50.814Z,26
2017-10-11T15:25:17.268Z,28
2017-10-11T15:37:35.066Z,28
2017-10-11T16:25:51.488Z,28
2017-10-11T16:38:00.370Z,27
2017-10-11T16:50:10.688Z,27
2017-10-11T17:02:23.447Z,26
2017-10-11T17:14:47.443Z,27
2017-10-11T17:27:03.186Z,26
2017-10-11T17:39:15.627Z,27
2017-10-11T17:51:24.696Z,24
2017-10-11T18:03:25.328Z,27
2017-10-11T18:15:25.563Z,26
2017-10-11T18:27:34.430Z,27
2017-10-11T18:39:33.946Z,26
2017-10-11T18:51:43.907Z,25
2017-10-11T19:03:48.970Z,25
2017-10-11T19:15:47.824Z,26
2017-10-11T19:27:46.283Z,25
2017-10-11T19:39:43.492Z,25
2017-10-11T19:51:43.048Z,25
2017-10-11T20:03:43.368Z,24
2017-10-11T20:15:43.652Z,25
2017-10-11T20:27:42.306Z,25
2017-10-11T20:39:40.165Z,23
2017-10-11T20:51:38.007Z,23
2017-10-11T21:03:36.543Z,25
2017-10-11T21:15:35.028Z,23
2017-10-11T21:27:32.085Z,22
2017-10-11T21:39:29.269Z,25
2017-10-11T21:51:27.748Z,25
2017-10-11T22:03:25.248Z,23
2017-10-11T22:15:22.815Z,25
2017-10-11T22:27:19.933Z,25
2017-10-11T22:39:17.030Z,24
2017-10-11T22:51:14.568Z,23
2017-10-11T23:03:14.912Z,23
2017-10-11T23:15:18.106Z,24
2017-10-11T23:27:22.670Z,24
2017-10-11T23:39:26.161Z,23
2017-10-11T23:51:29.982Z,23
